createdAt,value
2022-11-17T00:02:05.128Z,96238.03
2022-11-17T00:04:52.321Z,96227.88
2022-11-17T00:07:39.325Z,96219.91
2022-11-17T00:10:26.301Z,96217.19
2022-11-17T00:13:32.146Z,96206.75
2022-11-17T00:16:21.369Z,96200.28
2022-11-17T00:19:27.489Z,96205.53
2022-11-17T00:22:14.488Z,96215.56
2022-11-17T00:25:01.418Z,96208.28
2022-11-17T00:27:48.603Z,96215.81
2022-11-17T00:30:54.077Z,96213.56
2022-11-17T00:33:59.827Z,96213.72
2022-11-17T00:36:52.314Z,96208.72
2022-11-17T00:39:39.504Z,96197.13
2022-11-17T00:42:26.425Z,96178.41
2022-11-17T00:45:13.533Z,96170.69
2022-11-17T00:48:00.484Z,96166.09
2022-11-17T00:50:47.648Z,96165.50
2022-11-17T00:53:34.908Z,96153.66
2022-11-17T00:56:22.113Z,96159.66
2022-11-17T00:59:09.025Z,96164.09
2022-11-17T01:01:56.044Z,96161.63
2022-11-17T01:04:43.012Z,96155.47
2022-11-17T01:07:29.993Z,96152.94
2022-11-17T01:10:17.025Z,96156.66
2022-11-17T01:13:04.228Z,96151.91
2022-11-17T01:15:51.176Z,96147.06
2022-11-17T01:18:39.373Z,96144.66
2022-11-17T01:21:28.180Z,96138.75
2022-11-17T01:24:17.116Z,96148.75
2022-11-17T01:27:04.036Z,96141.91
2022-11-17T01:29:51.008Z,96145.78
2022-11-17T01:32:38.136Z,96152.22
2022-11-17T01:35:25.136Z,96149.78
2022-11-17T01:38:12.079Z,96157.03
2022-11-17T01:41:01.213Z,96155.47
2022-11-17T01:43:57.007Z,96144.19
2022-11-17T01:46:44.184Z,96137.03
2022-11-17T01:49:32.357Z,96141.03
2022-11-17T01:52:19.423Z,96133.47
2022-11-17T01:55:08.724Z,96133.16
2022-11-17T01:58:01.002Z,96135.59
2022-11-17T02:00:49.020Z,96140.56
2022-11-17T02:03:37.123Z,96131.97
2022-11-17T02:06:31.206Z,96130.13
2022-11-17T02:09:19.185Z,96134.00
2022-11-17T02:12:09.211Z,96130.53
2022-11-17T02:14:56.192Z,96127.38
2022-11-17T02:17:43.966Z,96113.53
2022-11-17T02:21:12.262Z,96116.00
2022-11-17T02:24:56.434Z,96119.69
2022-11-17T02:28:23.912Z,96125.53
2022-11-17T02:31:35.445Z,96121.94
2022-11-17T02:34:44.855Z,96119.06
2022-11-17T02:38:17.306Z,96115.78
2022-11-17T02:41:23.107Z,96122.47
2022-11-17T02:44:21.459Z,96122.34
2022-11-17T02:47:18.043Z,96116.91
2022-11-17T02:50:07.919Z,96115.91
2022-11-17T02:52:55.333Z,96113.50
2022-11-17T02:55:50.208Z,96104.94
2022-11-17T02:58:37.180Z,96103.09
2022-11-17T03:01:52.133Z,96106.97
2022-11-17T03:05:09.836Z,96099.41
2022-11-17T03:08:42.593Z,96104.41
2022-11-17T03:11:52.813Z,96102.25
2022-11-17T03:15:16.991Z,96102.53
2022-11-17T03:18:15.105Z,96101.66
2022-11-17T03:21:21.504Z,96104.25
2022-11-17T03:24:18.185Z,96103.50
2022-11-17T03:27:12.717Z,96107.41
2022-11-17T03:30:07.018Z,96102.41
2022-11-17T03:33:00.077Z,96102.56
2022-11-17T03:35:57.195Z,96096.69
2022-11-17T03:38:54.212Z,96090.09
2022-11-17T03:41:45.200Z,96088.97
2022-11-17T03:44:36.773Z,96089.56
2022-11-17T03:47:26.873Z,96090.72
2022-11-17T03:50:37.452Z,96083.41
2022-11-17T03:53:24.619Z,96080.13
2022-11-17T03:57:01.028Z,96075.56
2022-11-17T03:59:59.459Z,96076.81
2022-11-17T04:02:48.809Z,96077.69
2022-11-17T04:05:35.747Z,96063.56
2022-11-17T04:08:25.848Z,96065.97
2022-11-17T04:11:31.309Z,96071.44
2022-11-17T04:14:37.021Z,96069.44
2022-11-17T04:17:24.102Z,96070.84
2022-11-17T04:20:11.538Z,96075.25
2022-11-17T04:23:07.595Z,96075.25
2022-11-17T04:26:14.512Z,96079.13
2022-11-17T04:29:01.643Z,96081.41
2022-11-17T04:31:48.778Z,96079.25
2022-11-17T04:34:35.812Z,96074.97
2022-11-17T04:37:22.925Z,96072.13
2022-11-17T04:40:10.779Z,96071.00
2022-11-17T04:42:57.890Z,96062.41
2022-11-17T04:45:44.873Z,96062.09
2022-11-17T04:48:32.080Z,96052.53
2022-11-17T04:51:19.098Z,96048.13
2022-11-17T04:54:08.225Z,96050.22
2022-11-17T04:56:55.830Z,96044.09
2022-11-17T04:59:42.917Z,96034.97
2022-11-17T05:02:29.914Z,96035.97
2022-11-17T05:05:17.180Z,96032.66
2022-11-17T05:08:04.509Z,96029.38
2022-11-17T05:11:10.235Z,96022.41
2022-11-17T05:13:57.493Z,96022.81
2022-11-17T05:17:08.979Z,96028.81
2022-11-17T05:19:56.925Z,96030.22
2022-11-17T05:23:06.804Z,96032.94
2022-11-17T05:25:54.056Z,96038.22
2022-11-17T05:28:42.480Z,96028.50
2022-11-17T05:31:29.963Z,96013.25
2022-11-17T05:34:17.823Z,96009.50
2022-11-17T05:37:04.821Z,96009.50
2022-11-17T05:39:51.707Z,96012.38
2022-11-17T05:42:38.701Z,96015.09
2022-11-17T05:45:25.821Z,96024.38
2022-11-17T05:48:12.872Z,96021.22
2022-11-17T05:51:00.896Z,96012.50
2022-11-17T05:53:48.433Z,96003.22
2022-11-17T05:56:59.796Z,95999.91
2022-11-17T05:59:55.536Z,96002.50
2022-11-17T06:02:55.397Z,96002.19
2022-11-17T06:05:43.321Z,96008.59
2022-11-17T06:08:31.621Z,95995.75
2022-11-17T06:11:19.418Z,95984.34
2022-11-17T06:14:06.464Z,95991.34
2022-11-17T06:16:58.896Z,95995.50
2022-11-17T06:19:50.674Z,95995.22
2022-11-17T06:22:37.707Z,95997.94
2022-11-17T06:25:24.708Z,95988.66
2022-11-17T06:28:15.245Z,95986.22
2022-11-17T06:31:02.717Z,95996.66
2022-11-17T06:33:49.769Z,95991.81
2022-11-17T06:36:37.016Z,95986.50
2022-11-17T06:39:24.181Z,95986.09
2022-11-17T06:42:11.400Z,95984.50
2022-11-17T06:44:58.314Z,96005.22
2022-11-17T06:47:45.220Z,96001.09
2022-11-17T06:50:32.616Z,95997.66
2022-11-17T06:53:22.936Z,95987.22
2022-11-17T06:56:10.897Z,95979.06
2022-11-17T06:58:59.119Z,95963.19
2022-11-17T07:01:46.326Z,95963.19
2022-11-17T07:04:33.478Z,95973.22
2022-11-17T07:07:20.493Z,95979.06
2022-11-17T07:10:08.437Z,95982.81
2022-11-17T07:12:55.511Z,95997.38
2022-11-17T07:15:42.640Z,95977.94
2022-11-17T07:18:29.659Z,95988.81
2022-11-17T07:21:16.663Z,95999.50
2022-11-17T07:24:04.366Z,95989.34
2022-11-17T07:26:51.459Z,95999.09
2022-11-17T07:29:38.428Z,96004.38
2022-11-17T07:32:25.516Z,96002.78
2022-11-17T07:35:12.719Z,95990.34
2022-11-17T07:38:01.463Z,96000.63
2022-11-17T07:40:48.495Z,95989.75
2022-11-17T07:43:36.358Z,95994.06
2022-11-17T07:46:23.619Z,95982.75
2022-11-17T07:49:10.771Z,95967.00
2022-11-17T07:51:57.888Z,95961.28
2022-11-17T07:54:44.890Z,95966.72
2022-11-17T07:57:33.955Z,95986.44
2022-11-17T08:00:21.296Z,95976.44
2022-11-17T08:03:10.014Z,95976.00
2022-11-17T08:05:57.779Z,95981.72
2022-11-17T08:08:45.144Z,95982.75
2022-11-17T08:11:32.286Z,95976.88
2022-11-17T08:14:19.347Z,95980.31
2022-11-17T08:17:06.287Z,95983.91
2022-11-17T08:19:53.573Z,95987.47
2022-11-17T08:22:40.713Z,95995.03
2022-11-17T08:25:28.196Z,95991.59
2022-11-17T08:28:15.117Z,96003.34
2022-11-17T08:31:04.281Z,96005.78
2022-11-17T08:33:51.389Z,96003.78
2022-11-17T08:36:38.650Z,96005.63
2022-11-17T08:39:25.582Z,96019.38
2022-11-17T08:42:12.794Z,96012.38
2022-11-17T08:45:00.467Z,96011.78
2022-11-17T08:47:47.483Z,96013.34
2022-11-17T08:50:35.188Z,96013.63
2022-11-17T08:53:23.539Z,96009.16
2022-11-17T08:56:12.476Z,96004.28
2022-11-17T08:58:59.427Z,96016.56
2022-11-17T09:01:47.525Z,96023.31
2022-11-17T09:04:34.782Z,96034.75
2022-11-17T09:07:22.034Z,96042.22
2022-11-17T09:10:11.166Z,96047.78
2022-11-17T09:12:58.629Z,96044.06
2022-11-17T09:15:45.834Z,96052.75
2022-11-17T09:18:34.269Z,96065.59
2022-11-17T09:21:21.526Z,96081.75
2022-11-17T09:24:08.779Z,96085.06
2022-11-17T09:26:57.493Z,96107.25
2022-11-17T09:29:44.729Z,96094.66
2022-11-17T09:32:35.613Z,96106.25
2022-11-17T09:35:22.814Z,96120.22
2022-11-17T09:38:10.058Z,96130.50
2022-11-17T09:40:58.522Z,96140.81
2022-11-17T09:44:17.609Z,96141.69
2022-11-17T09:47:27.106Z,96134.63
2022-11-17T09:50:31.258Z,96126.31
2022-11-17T09:53:29.319Z,96120.31
2022-11-17T09:56:17.247Z,96127.91
2022-11-17T09:59:06.264Z,96122.47
2022-11-17T10:01:53.721Z,96120.72
2022-11-17T10:04:40.986Z,96132.75
2022-11-17T10:07:31.633Z,96145.94
2022-11-17T10:10:31.385Z,96147.22
2022-11-17T10:13:32.346Z,96131.91
2022-11-17T10:16:19.662Z,96135.94
2022-11-17T10:19:33.806Z,96143.22
2022-11-17T10:22:39.194Z,96116.03
2022-11-17T10:25:39.005Z,96098.84
2022-11-17T10:28:32.307Z,96108.84
2022-11-17T10:31:19.750Z,96101.56
2022-11-17T10:34:09.698Z,96097.69
2022-11-17T10:36:59.346Z,96114.56
2022-11-17T10:39:46.417Z,96114.84
2022-11-17T10:42:33.438Z,96128.16
2022-11-17T10:45:20.736Z,96147.50
2022-11-17T10:48:10.702Z,96153.50
2022-11-17T10:51:09.300Z,96156.22
2022-11-17T10:54:23.944Z,96157.66
2022-11-17T10:57:22.456Z,96152.06
2022-11-17T11:00:29.557Z,96161.84
2022-11-17T11:03:24.609Z,96181.44
2022-11-17T11:06:27.321Z,96170.53
2022-11-17T11:09:21.631Z,96170.53
2022-11-17T11:12:16.331Z,96166.47
2022-11-17T11:15:05.717Z,96156.59
2022-11-17T11:17:52.743Z,96154.84
2022-11-17T11:21:04.740Z,96138.78
2022-11-17T11:24:30.094Z,96108.47
2022-11-17T11:28:11.617Z,96106.91
2022-11-17T11:31:50.930Z,96115.34
2022-11-17T11:35:05.652Z,96104.84
2022-11-17T11:38:30.000Z,96090.38
2022-11-17T11:45:19.548Z,96071.41
2022-11-17T11:48:44.175Z,96078.75
2022-11-17T11:51:37.042Z,96060.78
2022-11-17T11:54:44.888Z,96068.78
2022-11-17T11:57:43.415Z,96058.31
2022-11-17T12:00:30.722Z,96045.00
2022-11-17T12:03:46.214Z,96043.41
2022-11-17T12:06:56.849Z,96041.13
2022-11-17T12:09:57.758Z,96041.97
2022-11-17T12:12:46.307Z,96038.47
2022-11-17T12:15:35.382Z,96039.16
2022-11-17T12:18:33.376Z,96042.50
2022-11-17T12:21:25.507Z,96046.88
2022-11-17T12:24:27.343Z,96041.31
2022-11-17T12:27:55.170Z,96030.34
2022-11-17T12:31:25.502Z,96034.09
2022-11-17T12:34:39.378Z,96021.66
2022-11-17T12:37:26.604Z,96014.69
2022-11-17T12:41:00.111Z,96019.16
2022-11-17T12:43:47.234Z,96021.50
2022-11-17T12:46:34.571Z,96020.06
2022-11-17T12:49:36.684Z,96019.34
2022-11-17T12:52:53.555Z,96020.28
2022-11-17T12:56:01.147Z,96015.50
2022-11-17T12:59:40.227Z,96025.69
2022-11-17T13:02:59.009Z,96023.03
2022-11-17T13:06:28.242Z,96020.22
2022-11-17T13:09:15.067Z,96033.25
2022-11-17T13:12:05.557Z,96039.31
2022-11-17T13:14:57.771Z,96048.84
2022-11-17T13:17:44.832Z,96053.78
2022-11-17T13:20:31.966Z,96048.91
2022-11-17T13:23:32.513Z,96055.09
2022-11-17T13:26:22.182Z,96059.84
2022-11-17T13:29:19.534Z,96062.13
2022-11-17T13:32:32.425Z,96048.53
2022-11-17T13:35:28.891Z,96066.13
2022-11-17T13:38:23.430Z,96068.97
2022-11-17T13:41:10.772Z,96081.34
2022-11-17T13:43:58.297Z,96075.00
2022-11-17T13:46:45.262Z,96072.38
2022-11-17T13:49:37.263Z,96075.34
2022-11-17T13:52:40.581Z,96081.91
2022-11-17T13:55:29.733Z,96093.16
2022-11-17T13:58:37.932Z,96105.22
2022-11-17T14:01:29.144Z,96121.31
2022-11-17T14:04:24.229Z,96129.81
2022-11-17T14:07:15.144Z,96135.56
2022-11-17T14:10:28.155Z,96127.72
2022-11-17T14:13:22.039Z,96129.03
2022-11-17T14:16:37.687Z,96132.31
2022-11-17T14:19:33.707Z,96138.31
2022-11-17T14:22:30.926Z,96147.06
2022-11-17T14:25:18.133Z,96144.16
2022-11-17T14:28:14.131Z,96143.19
2022-11-17T14:31:01.631Z,96123.16
2022-11-17T14:33:50.480Z,96133.44
2022-11-17T14:36:39.263Z,96132.56
2022-11-17T14:39:26.229Z,96135.59
2022-11-17T14:42:14.622Z,96144.59
2022-11-17T14:45:08.510Z,96147.31
2022-11-17T14:47:55.451Z,96143.88
2022-11-17T14:50:42.799Z,96145.03
2022-11-17T14:53:29.946Z,96144.31
2022-11-17T14:56:19.808Z,96144.19
2022-11-17T14:59:06.728Z,96142.91
2022-11-17T15:01:54.108Z,96157.50
2022-11-17T15:04:50.544Z,96142.19
2022-11-17T15:07:38.815Z,96124.16
2022-11-17T15:10:25.921Z,96145.78
2022-11-17T15:13:13.257Z,96151.22
2022-11-17T15:16:06.816Z,96142.19
2022-11-17T15:18:53.835Z,96128.31
2022-11-17T15:21:40.754Z,96123.44
2022-11-17T15:24:27.688Z,96121.84
2022-11-17T15:27:14.962Z,96122.72
2022-11-17T15:30:02.294Z,96116.28
2022-11-17T15:32:49.425Z,96108.69
2022-11-17T15:35:36.643Z,96098.69
2022-11-17T15:38:23.730Z,96095.25
2022-11-17T15:41:12.210Z,96097.97
2022-11-17T15:43:59.080Z,96089.25
2022-11-17T15:46:47.880Z,96082.06
2022-11-17T15:49:35.036Z,96077.94
2022-11-17T15:52:41.442Z,96092.69
2022-11-17T15:55:28.959Z,96074.34
2022-11-17T15:58:16.122Z,96070.22
2022-11-17T16:01:29.028Z,96079.38
2022-11-17T16:04:16.213Z,96082.97
2022-11-17T16:07:04.236Z,96061.22
2022-11-17T16:09:51.375Z,96051.63
2022-11-17T16:12:38.528Z,96058.06
2022-11-17T16:15:25.667Z,96054.50
2022-11-17T16:18:12.532Z,96059.94
2022-11-17T16:21:05.071Z,96067.34
2022-11-17T16:23:56.707Z,96071.69
2022-11-17T16:26:44.895Z,96069.25
2022-11-17T16:29:31.836Z,96073.00
2022-11-17T16:32:19.278Z,96074.69
2022-11-17T16:35:06.497Z,96069.84
2022-11-17T16:37:54.004Z,96060.81
2022-11-17T16:40:41.391Z,96071.25
2022-11-17T16:43:28.463Z,96065.38
2022-11-17T16:46:18.429Z,96078.84
2022-11-17T16:49:07.250Z,96072.84
2022-11-17T16:51:54.141Z,96077.25
2022-11-17T16:54:42.090Z,96078.72
2022-11-17T16:57:29.229Z,96069.41
2022-11-17T17:00:18.039Z,96072.13
2022-11-17T17:03:04.967Z,96067.41
2022-11-17T17:05:52.043Z,96060.41
2022-11-17T17:08:39.495Z,96063.25
2022-11-17T17:11:29.194Z,96062.41
2022-11-17T17:14:16.832Z,96072.88
2022-11-17T17:17:06.504Z,96075.16
2022-11-17T17:19:53.581Z,96079.03
2022-11-17T17:22:40.562Z,96074.72
2022-11-17T17:25:27.546Z,96074.16
2022-11-17T17:28:14.663Z,96077.88
2022-11-17T17:31:03.391Z,96076.16
2022-11-17T17:33:51.608Z,96072.28
2022-11-17T17:36:38.665Z,96067.56
2022-11-17T17:39:25.902Z,96069.84
2022-11-17T17:42:13.731Z,96074.56
2022-11-17T17:45:00.709Z,96066.13
2022-11-17T17:47:47.604Z,96058.09
2022-11-17T17:50:34.611Z,96056.06
2022-11-17T17:53:21.746Z,96058.94
2022-11-17T17:56:14.782Z,96062.53
2022-11-17T17:59:01.845Z,96059.38
2022-11-17T18:01:49.665Z,96066.63
2022-11-17T18:04:36.596Z,96067.06
2022-11-17T18:07:23.725Z,96070.22
2022-11-17T18:10:10.703Z,96074.38
2022-11-17T18:12:57.824Z,96068.38
2022-11-17T18:15:44.824Z,96070.50
2022-11-17T18:18:32.318Z,96063.78
2022-11-17T18:21:19.858Z,96060.38
2022-11-17T18:24:07.150Z,96058.78
2022-11-17T18:26:54.279Z,96062.19
2022-11-17T18:29:41.233Z,96069.44
2022-11-17T18:32:28.116Z,96059.00
2022-11-17T18:35:15.259Z,96054.88
2022-11-17T18:38:02.443Z,96056.03
2022-11-17T18:40:49.370Z,96051.19
2022-11-17T18:43:37.653Z,96049.38
2022-11-17T18:46:25.773Z,96037.72
2022-11-17T18:49:15.169Z,96036.56
2022-11-17T18:52:02.400Z,96039.88
2022-11-17T18:54:49.230Z,96043.94
2022-11-17T18:57:39.549Z,96046.66
2022-11-17T19:00:30.240Z,96053.09
2022-11-17T19:03:17.187Z,96054.78
2022-11-17T19:06:05.414Z,96055.66
2022-11-17T19:08:53.090Z,96052.53
2022-11-17T19:11:40.079Z,96047.94
2022-11-17T19:14:27.087Z,96041.59
2022-11-17T19:17:13.981Z,96044.72
2022-11-17T19:20:00.942Z,96049.31
2022-11-17T19:22:50.078Z,96050.03
2022-11-17T19:25:41.623Z,96043.03
2022-11-17T19:28:31.667Z,96048.47
2022-11-17T19:31:20.068Z,96047.19
2022-11-17T19:34:07.129Z,96040.88
2022-11-17T19:36:54.103Z,96040.88
2022-11-17T19:39:41.049Z,96041.19
2022-11-17T19:42:27.999Z,96039.72
2022-11-17T19:45:15.917Z,96032.28
2022-11-17T19:48:02.826Z,96036.31
2022-11-17T19:50:54.574Z,96042.59
2022-11-17T19:53:43.127Z,96040.75
2022-11-17T19:56:30.677Z,96050.59
2022-11-17T19:59:18.137Z,96040.16
2022-11-17T20:02:05.465Z,96040.44
2022-11-17T20:04:52.498Z,96041.47
2022-11-17T20:07:39.883Z,96041.47
2022-11-17T20:10:27.123Z,96040.44
2022-11-17T20:13:14.235Z,96039.59
2022-11-17T20:16:06.170Z,96043.88
2022-11-17T20:18:57.908Z,96039.88
2022-11-17T20:21:46.366Z,96058.28
2022-11-17T20:24:35.333Z,96056.72
2022-11-17T20:27:22.561Z,96047.72
2022-11-17T20:30:14.946Z,96034.09
2022-11-17T20:33:02.408Z,96030.66
2022-11-17T20:35:49.318Z,96024.44
2022-11-17T20:38:36.495Z,96030.59
2022-11-17T20:41:24.223Z,96026.59
2022-11-17T20:44:26.399Z,96011.38
2022-11-17T20:47:13.414Z,96006.25
2022-11-17T20:50:00.590Z,96007.84
2022-11-17T20:52:47.703Z,96016.09
2022-11-17T20:55:34.838Z,96013.25
2022-11-17T20:58:21.992Z,96014.88
2022-11-17T21:01:11.201Z,96017.25
2022-11-17T21:03:58.401Z,96018.00
2022-11-17T21:06:45.387Z,96012.31
2022-11-17T21:09:32.367Z,96015.91
2022-11-17T21:12:19.460Z,96012.16
2022-11-17T21:15:07.290Z,95999.91
2022-11-17T21:18:13.051Z,95995.63
2022-11-17T21:21:08.460Z,95999.19
2022-11-17T21:23:56.040Z,96010.16
2022-11-17T21:26:43.405Z,96002.75
2022-11-17T21:29:30.354Z,96005.59
2022-11-17T21:32:17.309Z,96014.03
2022-11-17T21:35:05.942Z,96010.16
2022-11-17T21:37:52.898Z,96017.03
2022-11-17T21:40:39.873Z,96022.00
2022-11-17T21:43:26.769Z,96021.63
2022-11-17T21:46:16.332Z,96017.34
2022-11-17T21:49:03.773Z,96015.75
2022-11-17T21:51:50.750Z,96010.03
2022-11-17T21:54:37.760Z,96005.16
2022-11-17T21:57:24.922Z,95998.16
2022-11-17T22:00:12.506Z,95998.88
2022-11-17T22:02:59.542Z,95999.63
2022-11-17T22:05:46.428Z,96003.88
2022-11-17T22:08:36.622Z,96014.63
2022-11-17T22:11:38.488Z,96006.06
2022-11-17T22:14:25.793Z,96004.63
2022-11-17T22:17:13.259Z,96000.19
2022-11-17T22:20:00.441Z,95988.59
2022-11-17T22:22:49.185Z,95991.03
2022-11-17T22:25:45.329Z,95988.44
2022-11-17T22:28:33.073Z,95994.03
2022-11-17T22:31:21.246Z,95983.34
2022-11-17T22:34:08.446Z,95985.44
2022-11-17T22:36:55.396Z,95984.19
2022-11-17T22:39:42.380Z,95982.13
2022-11-17T22:42:29.373Z,95981.88
2022-11-17T22:45:16.567Z,95982.00
2022-11-17T22:48:04.994Z,95988.25
2022-11-17T22:50:51.930Z,95991.56
2022-11-17T22:53:39.497Z,95995.88
2022-11-17T22:56:26.864Z,95996.69
2022-11-17T22:59:14.250Z,96012.97
2022-11-17T23:02:01.548Z,96010.25
2022-11-17T23:04:48.759Z,96021.41
2022-11-17T23:07:36.040Z,96030.91
2022-11-17T23:10:23.069Z,96029.44
2022-11-17T23:13:10.030Z,96019.97
2022-11-17T23:15:57.850Z,96017.81
2022-11-17T23:18:45.013Z,96021.66
2022-11-17T23:21:32.148Z,96019.22
2022-11-17T23:24:19.103Z,96018.25
2022-11-17T23:27:07.094Z,96022.13
2022-11-17T23:29:54.216Z,96021.97
2022-11-17T23:32:41.229Z,96028.97
2022-11-17T23:35:28.332Z,96022.84
2022-11-17T23:38:15.534Z,96028.84
2022-11-17T23:41:04.697Z,96024.25
2022-11-17T23:43:53.156Z,96023.19
2022-11-17T23:46:40.182Z,96031.19
2022-11-17T23:49:27.394Z,96030.97
2022-11-17T23:52:14.546Z,96027.75
2022-11-17T23:55:01.503Z,96023.41
2022-11-17T23:57:48.471Z,96033.53
